Assaria, Kansas
Current Conditions -  °F | °C
As of 11:53 AM on Sunday 21 Dec 2014 (Local Time) from KSLN Reporting Station
Haze Haze  
Wind Chill: 36°   Ceiling: 800
Heat Index: 43°   Visibility: 6mi
Dew Point: 39°   Wind: 15mph
Humidity: 86%   Direction: 190°S
Pressure: 29.85"   Gusts: 25mph
Location:  38.68°N, 97.6°W
Report Text: KSLN 211753Z 19013G22KT 6SM BR OVC008 06/04 A2985 RMK AO2 SLP112 T00610039 10061 20044 58021
Loading
Personal Weather Stations






























Interactive Weather Map New forecast layout! Learn more

10-Day Weather Forecast

Advertisements
Track Severe Weather on mobile